createdAt,value
2022-10-02T00:01:37.016Z,100.00
2022-10-02T00:05:10.796Z,100.00
2022-10-02T00:08:33.458Z,100.00
2022-10-02T00:11:46.196Z,97.85
2022-10-02T00:14:54.100Z,99.00
2022-10-02T00:18:10.370Z,98.30
2022-10-02T00:21:29.439Z,98.80
2022-10-02T00:24:39.763Z,98.46
2022-10-02T00:28:00.490Z,98.74
2022-10-02T00:31:09.003Z,98.68
2022-10-02T00:34:37.729Z,98.40
2022-10-02T00:37:50.763Z,99.08
2022-10-02T00:41:20.253Z,100.00
2022-10-02T00:44:44.199Z,100.00
2022-10-02T00:48:16.692Z,100.00
2022-10-02T00:51:25.518Z,100.00
2022-10-02T00:55:05.601Z,100.00
2022-10-02T00:58:26.821Z,100.00
2022-10-02T01:01:41.409Z,100.00
2022-10-02T01:04:44.214Z,100.00
2022-10-02T01:07:50.806Z,99.87
2022-10-02T01:10:53.969Z,99.74
2022-10-02T01:13:57.837Z,95.98
2022-10-02T01:17:01.366Z,97.04
2022-10-02T01:20:07.292Z,95.47
2022-10-02T01:23:28.825Z,93.94
2022-10-02T01:26:32.037Z,94.31
2022-10-02T01:29:34.954Z,92.69
2022-10-02T01:32:41.280Z,93.52
2022-10-02T01:35:44.269Z,92.40
2022-10-02T01:38:50.117Z,92.82
2022-10-02T01:41:55.589Z,93.91
2022-10-02T01:44:58.580Z,94.94
2022-10-02T01:48:12.157Z,94.04
2022-10-02T01:51:48.522Z,93.99
2022-10-02T01:55:03.543Z,95.13
2022-10-02T01:58:19.211Z,93.59
2022-10-02T02:01:57.584Z,93.53
2022-10-02T02:05:09.088Z,94.37
2022-10-02T02:08:21.537Z,93.89
2022-10-02T02:11:24.318Z,93.15
2022-10-02T02:14:46.642Z,93.73
2022-10-02T02:18:01.147Z,92.80
2022-10-02T02:21:31.294Z,93.35
2022-10-02T02:24:42.808Z,93.22
2022-10-02T02:27:50.706Z,93.24
2022-10-02T02:30:55.913Z,93.91
2022-10-02T02:34:04.721Z,94.08
2022-10-02T02:37:13.881Z,93.97
2022-10-02T02:40:19.815Z,94.15
2022-10-02T02:43:31.902Z,94.61
2022-10-02T02:46:59.532Z,94.19
2022-10-02T02:50:14.314Z,94.96
2022-10-02T02:53:21.617Z,94.84
2022-10-02T02:56:29.738Z,94.75
2022-10-02T02:59:33.364Z,95.16
2022-10-02T03:02:36.282Z,96.60
2022-10-02T03:05:44.487Z,96.84
2022-10-02T03:08:52.772Z,96.71
2022-10-02T03:12:16.635Z,97.18
2022-10-02T03:15:27.809Z,96.51
2022-10-02T03:19:02.264Z,97.64
2022-10-02T03:22:14.859Z,97.59
2022-10-02T03:25:32.437Z,98.88
2022-10-02T03:28:56.615Z,99.36
2022-10-02T03:32:00.733Z,98.04
2022-10-02T03:35:07.377Z,98.75
2022-10-02T03:38:13.341Z,98.73
2022-10-02T03:41:16.061Z,97.17
2022-10-02T03:44:18.225Z,98.34
2022-10-02T03:47:20.816Z,99.07
2022-10-02T03:50:23.061Z,99.96
2022-10-02T03:53:31.065Z,99.83
2022-10-02T03:56:59.974Z,100.00
2022-10-02T04:00:13.330Z,100.00
2022-10-02T04:03:21.302Z,99.68
2022-10-02T04:06:40.097Z,99.60
2022-10-02T04:09:52.545Z,100.00
2022-10-02T04:13:02.411Z,100.00
2022-10-02T04:16:27.906Z,99.37
2022-10-02T04:19:41.536Z,100.00
2022-10-02T04:23:03.444Z,99.94
2022-10-02T04:26:15.505Z,99.43
2022-10-02T04:29:31.956Z,99.27
2022-10-02T04:32:37.004Z,99.75
2022-10-02T04:35:49.899Z,100.00
2022-10-02T04:39:32.471Z,99.87
2022-10-02T04:42:54.716Z,100.00
2022-10-02T04:46:19.451Z,100.00
2022-10-02T04:49:40.487Z,100.00
2022-10-02T04:53:12.484Z,99.97
2022-10-02T04:56:33.591Z,99.81
2022-10-02T04:59:56.902Z,100.00
2022-10-02T05:03:38.170Z,100.00
2022-10-02T05:07:20.036Z,99.40
2022-10-02T05:10:36.188Z,99.72
2022-10-02T05:14:16.267Z,98.69
2022-10-02T05:17:22.733Z,97.13
2022-10-02T05:20:43.288Z,96.38
2022-10-02T05:24:10.755Z,95.87
2022-10-02T05:27:48.535Z,95.05
2022-10-02T05:31:14.967Z,93.70
2022-10-02T05:34:17.152Z,94.12
2022-10-02T05:37:55.504Z,94.70
2022-10-02T05:41:11.319Z,93.50
2022-10-02T05:44:30.040Z,91.33
2022-10-02T05:47:39.808Z,87.73
2022-10-02T05:50:46.378Z,85.84
2022-10-02T05:54:01.071Z,85.71
2022-10-02T05:57:21.417Z,85.51
2022-10-02T06:00:52.132Z,86.81
2022-10-02T06:04:02.554Z,85.82
2022-10-02T06:07:09.764Z,85.50
2022-10-02T06:10:18.183Z,85.49
2022-10-02T06:13:28.244Z,85.33
2022-10-02T06:16:44.612Z,85.19
2022-10-02T06:20:13.451Z,84.09
2022-10-02T06:23:22.991Z,84.63
2022-10-02T06:26:57.151Z,81.93
2022-10-02T06:30:04.249Z,82.79
2022-10-02T06:33:18.151Z,81.61
2022-10-02T06:36:32.044Z,81.39
2022-10-02T06:39:55.574Z,78.17
2022-10-02T06:43:20.410Z,71.75
2022-10-02T06:46:35.415Z,62.44
2022-10-02T06:49:58.988Z,56.26
2022-10-02T06:53:04.277Z,52.51
2022-10-02T06:56:22.447Z,50.33
2022-10-02T06:59:53.292Z,48.38
2022-10-02T07:03:06.771Z,47.82
2022-10-02T07:06:12.795Z,48.20
2022-10-02T07:09:36.758Z,49.15
2022-10-02T07:12:54.033Z,52.55
2022-10-02T07:16:34.464Z,54.36
2022-10-02T07:19:55.489Z,56.54
2022-10-02T07:23:02.281Z,59.62
2022-10-02T07:26:37.836Z,61.01
2022-10-02T07:30:01.667Z,62.41
2022-10-02T07:33:19.601Z,62.29
2022-10-02T07:36:55.917Z,62.69
2022-10-02T07:40:23.302Z,62.50
2022-10-02T07:43:52.677Z,63.28
2022-10-02T07:47:00.776Z,62.25
2022-10-02T07:50:27.149Z,63.43
2022-10-02T07:53:40.960Z,61.29
2022-10-02T07:56:48.395Z,63.00
2022-10-02T07:59:53.128Z,62.82
2022-10-02T08:03:08.239Z,61.22
2022-10-02T08:06:11.803Z,63.60
2022-10-02T08:09:19.574Z,61.52
2022-10-02T08:12:28.950Z,61.72
2022-10-02T08:15:35.734Z,61.33
2022-10-02T08:18:48.776Z,62.25
2022-10-02T08:21:59.623Z,61.59
2022-10-02T08:25:10.749Z,61.48
2022-10-02T08:28:31.992Z,59.92
2022-10-02T08:31:34.865Z,59.46
2022-10-02T08:34:38.058Z,60.13
2022-10-02T08:38:10.305Z,59.67
2022-10-02T08:41:50.547Z,59.31
2022-10-02T08:45:24.261Z,58.54
2022-10-02T08:48:55.382Z,58.36
2022-10-02T08:52:37.494Z,58.43
2022-10-02T08:55:50.777Z,58.32
2022-10-02T08:59:29.089Z,59.94
2022-10-02T09:03:15.802Z,59.07
2022-10-02T09:06:37.430Z,58.89
2022-10-02T09:09:43.040Z,57.63
2022-10-02T09:12:48.610Z,58.17
2022-10-02T09:16:08.702Z,56.16
2022-10-02T09:19:49.895Z,56.54
2022-10-02T09:23:18.532Z,55.15
2022-10-02T09:26:45.548Z,54.89
2022-10-02T09:30:16.432Z,54.44
2022-10-02T09:33:31.659Z,55.65
2022-10-02T09:36:45.865Z,56.23
2022-10-02T09:40:43.047Z,55.17
2022-10-02T09:43:54.344Z,51.94
2022-10-02T09:47:19.163Z,53.94
2022-10-02T09:50:40.499Z,51.33
2022-10-02T09:54:15.484Z,53.28
2022-10-02T09:57:31.840Z,52.32
2022-10-02T10:01:14.427Z,53.80
2022-10-02T10:04:22.948Z,50.65
2022-10-02T10:07:40.825Z,50.36
2022-10-02T10:11:00.609Z,51.29
2022-10-02T10:14:37.154Z,51.04
2022-10-02T10:17:42.828Z,52.10
2022-10-02T10:21:06.598Z,49.97
2022-10-02T10:24:41.366Z,49.46
2022-10-02T10:28:06.165Z,50.04
2022-10-02T10:31:37.320Z,48.62
2022-10-02T10:34:59.476Z,50.84
2022-10-02T10:38:35.128Z,49.62
2022-10-02T10:41:57.404Z,49.04
2022-10-02T10:45:00.369Z,49.67
2022-10-02T10:48:20.270Z,49.24
2022-10-02T10:51:35.379Z,49.53
2022-10-02T10:54:48.596Z,50.01
2022-10-02T10:58:08.790Z,49.54
2022-10-02T11:01:19.885Z,50.26
2022-10-02T11:04:48.158Z,49.72
2022-10-02T11:08:22.300Z,48.89
2022-10-02T11:11:52.649Z,50.12
2022-10-02T11:15:02.816Z,50.96
2022-10-02T11:18:15.669Z,49.36
2022-10-02T11:21:45.165Z,50.81
2022-10-02T11:25:02.240Z,53.19
2022-10-02T11:28:43.540Z,51.05
2022-10-02T11:32:10.177Z,51.76
2022-10-02T11:35:19.431Z,53.42
2022-10-02T11:38:35.567Z,53.76
2022-10-02T11:41:45.151Z,51.47
2022-10-02T11:44:47.751Z,51.60
2022-10-02T11:48:14.129Z,53.05
2022-10-02T11:51:22.718Z,52.59
2022-10-02T11:54:37.304Z,52.75
2022-10-02T11:58:00.521Z,54.15
2022-10-02T12:01:37.273Z,53.90
2022-10-02T12:05:06.064Z,53.84
2022-10-02T12:08:24.279Z,53.56
2022-10-02T12:11:56.660Z,53.21
2022-10-02T12:15:09.433Z,52.77
2022-10-02T12:18:21.973Z,56.05
2022-10-02T12:21:55.179Z,56.25
2022-10-02T12:25:56.950Z,56.50
2022-10-02T12:29:05.713Z,58.21
2022-10-02T12:32:16.674Z,60.69
2022-10-02T12:35:48.077Z,61.13
2022-10-02T12:39:04.200Z,62.41
2022-10-02T12:42:27.349Z,63.52
2022-10-02T12:45:44.671Z,63.37
2022-10-02T12:49:13.264Z,65.25
2022-10-02T12:52:58.640Z,64.51
2022-10-02T12:56:42.458Z,66.75
2022-10-02T12:59:58.645Z,66.85
2022-10-02T13:03:39.356Z,66.46
2022-10-02T13:07:13.634Z,66.00
2022-10-02T13:10:19.343Z,65.86
2022-10-02T13:13:40.456Z,65.67
2022-10-02T13:16:49.064Z,65.24
2022-10-02T13:20:28.065Z,63.60
2022-10-02T13:23:39.844Z,63.62
2022-10-02T13:27:16.935Z,64.61
2022-10-02T13:30:24.163Z,63.75
2022-10-02T13:34:06.039Z,64.46
2022-10-02T13:37:15.767Z,63.91
2022-10-02T13:40:47.960Z,65.34
2022-10-02T13:43:57.687Z,65.27
2022-10-02T13:47:32.691Z,64.83
2022-10-02T13:50:43.674Z,64.80
2022-10-02T13:54:11.812Z,65.34
2022-10-02T13:58:02.423Z,66.05
2022-10-02T14:01:13.883Z,66.37
2022-10-02T14:04:46.245Z,67.44
2022-10-02T14:08:17.572Z,66.60
2022-10-02T14:11:57.324Z,65.43
2022-10-02T14:15:02.464Z,64.62
2022-10-02T14:18:17.217Z,65.49
2022-10-02T14:21:38.677Z,64.27
2022-10-02T14:25:00.194Z,65.38
2022-10-02T14:28:12.906Z,64.48
2022-10-02T14:31:42.268Z,65.40
2022-10-02T14:35:07.345Z,66.73
2022-10-02T14:38:58.507Z,65.39
2022-10-02T14:42:03.616Z,66.65
2022-10-02T14:45:21.804Z,66.34
2022-10-02T14:48:47.191Z,66.22
2022-10-02T14:52:20.640Z,65.63
2022-10-02T14:56:00.765Z,65.48
2022-10-02T14:59:43.469Z,66.33
2022-10-02T15:03:11.050Z,67.83
2022-10-02T15:06:35.259Z,67.73
2022-10-02T15:09:51.756Z,68.14
2022-10-02T15:13:10.038Z,67.75
2022-10-02T15:16:39.664Z,68.66
2022-10-02T15:20:06.018Z,69.63
2022-10-02T15:23:24.425Z,69.69
2022-10-02T15:26:49.220Z,70.64
2022-10-02T15:29:54.159Z,71.48
2022-10-02T15:33:02.103Z,72.36
2022-10-02T15:36:33.411Z,73.14
2022-10-02T15:39:54.502Z,73.97
2022-10-02T15:43:04.429Z,75.63
2022-10-02T15:46:25.821Z,76.33
2022-10-02T15:50:04.445Z,76.92
2022-10-02T15:53:38.306Z,77.53
2022-10-02T15:56:55.828Z,78.99
2022-10-02T16:00:10.833Z,78.61
2022-10-02T16:03:27.438Z,78.96
2022-10-02T16:06:50.705Z,79.59
2022-10-02T16:10:25.966Z,80.71
2022-10-02T16:13:48.260Z,80.79
2022-10-02T16:17:20.089Z,81.24
2022-10-02T16:20:27.263Z,81.47
2022-10-02T16:24:11.794Z,82.70
2022-10-02T16:27:14.468Z,83.32
2022-10-02T16:30:19.407Z,83.26
2022-10-02T16:33:59.663Z,83.59
2022-10-02T16:37:20.236Z,84.27
2022-10-02T16:40:27.452Z,84.06
2022-10-02T16:43:48.721Z,85.18
2022-10-02T16:46:59.899Z,85.31
2022-10-02T16:50:19.671Z,85.57
2022-10-02T16:53:31.108Z,85.37
2022-10-02T16:56:44.753Z,85.70
2022-10-02T17:00:11.111Z,85.44
2022-10-02T17:03:38.757Z,86.69
2022-10-02T17:06:56.195Z,86.67
2022-10-02T17:10:12.097Z,87.20
2022-10-02T17:13:54.194Z,86.99
2022-10-02T17:17:10.828Z,87.12
2022-10-02T17:20:28.673Z,86.81
2022-10-02T17:23:55.215Z,87.08
2022-10-02T17:27:15.151Z,87.59
2022-10-02T17:30:23.814Z,88.20
2022-10-02T17:33:32.286Z,87.72
2022-10-02T17:36:37.098Z,87.41
2022-10-02T17:40:08.866Z,87.49
2022-10-02T17:43:27.181Z,87.38
2022-10-02T17:46:40.966Z,87.89
2022-10-02T17:49:46.317Z,87.64
2022-10-02T17:53:25.363Z,87.81
2022-10-02T17:56:48.339Z,86.84
2022-10-02T18:00:15.835Z,86.83
2022-10-02T18:03:36.810Z,86.72
2022-10-02T18:06:53.404Z,87.37
2022-10-02T18:10:10.526Z,87.54
2022-10-02T18:13:33.080Z,87.80
2022-10-02T18:17:06.530Z,87.14
2022-10-02T18:20:29.484Z,87.99
2022-10-02T18:23:52.590Z,87.08
2022-10-02T18:27:05.218Z,87.27
2022-10-02T18:30:21.536Z,87.23
2022-10-02T18:33:30.271Z,87.66
2022-10-02T18:37:00.480Z,88.21
2022-10-02T18:40:25.952Z,89.55
2022-10-02T18:43:34.518Z,88.79
2022-10-02T18:47:02.695Z,88.85
2022-10-02T18:50:06.786Z,88.29
2022-10-02T18:53:41.541Z,88.53
2022-10-02T18:57:07.479Z,87.62
2022-10-02T19:00:21.469Z,87.40
2022-10-02T19:03:41.640Z,88.02
2022-10-02T19:06:50.018Z,88.37
2022-10-02T19:10:10.471Z,87.83
2022-10-02T19:13:18.021Z,87.75
2022-10-02T19:16:27.015Z,87.98
2022-10-02T19:19:29.698Z,87.94
2022-10-02T19:22:38.361Z,88.27
2022-10-02T19:25:46.733Z,87.90
2022-10-02T19:28:55.356Z,87.28
2022-10-02T19:32:01.064Z,87.54
2022-10-02T19:35:19.088Z,87.48
2022-10-02T19:38:35.350Z,87.82
2022-10-02T19:41:43.354Z,87.28
2022-10-02T19:44:49.701Z,87.60
2022-10-02T19:47:58.274Z,87.94
2022-10-02T19:51:07.456Z,88.02
2022-10-02T19:54:14.545Z,87.76
2022-10-02T19:57:19.311Z,88.32
2022-10-02T20:00:24.792Z,89.40
2022-10-02T20:03:28.410Z,89.43
2022-10-02T20:06:39.023Z,88.24
2022-10-02T20:10:02.198Z,88.27
2022-10-02T20:13:17.930Z,88.76
2022-10-02T20:16:43.985Z,88.03
2022-10-02T20:19:57.426Z,88.22
2022-10-02T20:23:04.467Z,87.89
2022-10-02T20:26:11.353Z,88.72
2022-10-02T20:29:34.305Z,88.86
2022-10-02T20:32:43.779Z,89.56
2022-10-02T20:35:54.909Z,89.96
2022-10-02T20:39:16.280Z,89.07
2022-10-02T20:42:37.139Z,90.61
2022-10-02T20:45:45.550Z,91.20
2022-10-02T20:49:08.879Z,91.05
2022-10-02T20:52:37.085Z,91.61
2022-10-02T20:56:09.038Z,91.37
2022-10-02T20:59:45.181Z,91.39
2022-10-02T21:03:02.304Z,91.85
2022-10-02T21:06:29.386Z,92.75
2022-10-02T21:09:43.496Z,92.78
2022-10-02T21:13:14.443Z,92.53
2022-10-02T21:16:45.135Z,93.05
2022-10-02T21:20:49.878Z,92.25
2022-10-02T21:24:24.246Z,92.63
2022-10-02T21:28:00.033Z,92.86
2022-10-02T21:31:39.099Z,92.87
2022-10-02T21:34:56.416Z,92.04
2022-10-02T21:38:19.858Z,92.89
2022-10-02T21:41:58.500Z,93.67
2022-10-02T21:45:28.824Z,94.62
2022-10-02T21:48:34.082Z,95.32
2022-10-02T21:51:40.790Z,95.93
2022-10-02T21:55:11.374Z,95.65
2022-10-02T21:58:32.916Z,97.16
2022-10-02T22:01:42.668Z,97.21
2022-10-02T22:05:09.751Z,97.63
2022-10-02T22:08:21.256Z,98.71
2022-10-02T22:12:01.516Z,99.40
2022-10-02T22:15:06.728Z,98.66
2022-10-02T22:18:45.243Z,98.99
2022-10-02T22:22:12.652Z,98.22
2022-10-02T22:25:32.939Z,96.86
2022-10-02T22:28:45.871Z,95.28
2022-10-02T22:31:54.411Z,94.44
2022-10-02T22:35:04.225Z,93.35
2022-10-02T22:38:09.964Z,92.40
2022-10-02T22:41:38.421Z,92.07
2022-10-02T22:44:47.167Z,91.87
2022-10-02T22:48:01.029Z,91.83
2022-10-02T22:51:25.149Z,90.96
2022-10-02T22:54:34.816Z,91.61
2022-10-02T22:57:52.286Z,91.32
2022-10-02T23:01:06.437Z,90.14
2022-10-02T23:04:21.365Z,89.86
2022-10-02T23:07:34.515Z,90.61
2022-10-02T23:11:01.088Z,91.08
2022-10-02T23:14:15.892Z,90.10
2022-10-02T23:17:42.299Z,90.01
2022-10-02T23:21:02.613Z,89.07
2022-10-02T23:24:28.937Z,87.82
2022-10-02T23:27:31.444Z,88.87
2022-10-02T23:30:42.220Z,90.25
2022-10-02T23:33:50.959Z,89.28
2022-10-02T23:37:04.524Z,90.38
2022-10-02T23:40:49.492Z,90.22
2022-10-02T23:44:20.067Z,89.60
2022-10-02T23:47:37.297Z,89.93
2022-10-02T23:51:03.134Z,90.20
2022-10-02T23:54:19.416Z,89.29
2022-10-02T23:57:33.731Z,89.49
